createdAt,value
2018-10-03T00:00:08.734Z,96.30
2018-10-03T00:02:37.356Z,96.30
2018-10-03T00:05:06.050Z,96.30
2018-10-03T00:07:34.646Z,96.30
2018-10-03T00:10:03.400Z,96.20
2018-10-03T00:12:31.981Z,96.10
2018-10-03T00:15:00.636Z,96.10
2018-10-03T00:17:29.315Z,96.10
2018-10-03T00:19:57.948Z,96.20
2018-10-03T00:22:26.608Z,96.30
2018-10-03T00:24:55.185Z,96.20
2018-10-03T00:27:23.835Z,96.40
2018-10-03T00:29:52.519Z,96.50
2018-10-03T00:32:21.143Z,96.50
2018-10-03T00:34:49.855Z,96.60
2018-10-03T00:37:18.462Z,96.40
2018-10-03T00:39:47.100Z,96.50
2018-10-03T00:42:15.714Z,96.50
2018-10-03T00:44:44.421Z,96.20
2018-10-03T00:47:13.052Z,96.50
2018-10-03T00:49:41.709Z,96.40
2018-10-03T00:52:10.330Z,96.20
2018-10-03T00:54:38.998Z,96.10
2018-10-03T00:57:07.652Z,96.20
2018-10-03T00:59:36.264Z,96.20
2018-10-03T01:02:04.897Z,96.30
2018-10-03T01:04:33.505Z,96.30
2018-10-03T01:07:02.161Z,96.20
2018-10-03T01:09:30.816Z,96.30
2018-10-03T01:11:59.420Z,96.30
2018-10-03T01:14:28.056Z,96.70
2018-10-03T01:16:56.689Z,96.50
2018-10-03T01:19:25.380Z,96.40
2018-10-03T01:21:54.013Z,96.30
2018-10-03T01:24:22.653Z,96.30
2018-10-03T01:26:51.324Z,96.30
2018-10-03T01:29:19.934Z,96.40
2018-10-03T01:31:48.669Z,96.40
2018-10-03T01:34:17.285Z,96.50
2018-10-03T01:36:45.941Z,96.50
2018-10-03T01:39:14.603Z,96.50
2018-10-03T01:41:43.266Z,96.40
2018-10-03T01:44:11.871Z,96.40
2018-10-03T01:46:40.532Z,96.40
2018-10-03T01:49:09.172Z,96.30
2018-10-03T01:51:37.879Z,96.30
2018-10-03T01:54:06.528Z,96.30
2018-10-03T01:56:35.162Z,96.40
2018-10-03T01:59:03.758Z,96.50
2018-10-03T02:01:32.404Z,96.60
2018-10-03T02:04:01.060Z,96.80
2018-10-03T02:06:29.702Z,96.70
2018-10-03T02:08:58.318Z,96.50
2018-10-03T02:11:26.967Z,96.50
2018-10-03T02:13:55.574Z,96.40
2018-10-03T02:16:24.243Z,96.30
2018-10-03T02:18:52.843Z,96.20
2018-10-03T02:21:21.515Z,96.20
2018-10-03T02:23:50.129Z,96.20
2018-10-03T02:26:18.753Z,96.20
2018-10-03T02:28:47.396Z,96.10
2018-10-03T02:31:16.031Z,96.20
2018-10-03T02:33:44.690Z,96.10
2018-10-03T02:36:13.311Z,95.90
2018-10-03T02:38:42.032Z,95.80
2018-10-03T02:41:10.681Z,95.70
2018-10-03T02:43:39.330Z,95.50
2018-10-03T02:46:07.987Z,95.50
2018-10-03T02:48:36.588Z,95.50
2018-10-03T02:51:05.285Z,95.40
2018-10-03T02:53:33.885Z,95.80
2018-10-03T02:56:02.565Z,95.40
2018-10-03T02:58:31.185Z,95.40
2018-10-03T03:00:59.792Z,95.50
2018-10-03T03:03:28.462Z,94.70
2018-10-03T03:05:57.107Z,94.70
2018-10-03T03:08:25.835Z,94.60
2018-10-03T03:10:54.455Z,94.70
2018-10-03T03:13:23.077Z,94.70
2018-10-03T03:15:51.838Z,94.60
2018-10-03T03:18:20.504Z,94.50
2018-10-03T03:20:49.161Z,95.10
2018-10-03T03:23:17.782Z,95.20
2018-10-03T03:25:46.430Z,94.90
2018-10-03T03:28:15.053Z,94.40
2018-10-03T03:30:43.677Z,94.50
2018-10-03T03:33:12.271Z,94.50
2018-10-03T03:35:41.027Z,94.50
2018-10-03T03:38:09.666Z,94.50
2018-10-03T03:40:38.321Z,94.40
2018-10-03T03:43:07.049Z,94.60
2018-10-03T03:45:35.730Z,94.40
2018-10-03T03:48:04.352Z,94.30
2018-10-03T03:50:33.035Z,94.50
2018-10-03T03:53:01.693Z,94.60
2018-10-03T03:55:30.317Z,94.70
2018-10-03T03:57:59.024Z,95.60
2018-10-03T04:00:27.629Z,95.50
2018-10-03T04:02:56.253Z,95.50
2018-10-03T04:05:24.929Z,95.60
2018-10-03T04:07:53.620Z,95.80
2018-10-03T04:10:22.278Z,95.90
2018-10-03T04:12:51.361Z,96.00
2018-10-03T04:15:20.090Z,96.60
2018-10-03T04:17:48.706Z,96.40
2018-10-03T04:20:17.338Z,96.50
2018-10-03T04:22:46.022Z,96.60
2018-10-03T04:25:14.665Z,96.70
2018-10-03T04:27:43.328Z,96.70
2018-10-03T04:30:12.030Z,96.70
2018-10-03T04:32:40.726Z,96.80
2018-10-03T04:35:09.354Z,96.90
2018-10-03T04:37:38.012Z,96.80
2018-10-03T04:40:06.706Z,96.90
2018-10-03T04:42:35.349Z,96.80
2018-10-03T04:45:04.076Z,96.90
2018-10-03T04:47:32.755Z,97.00
2018-10-03T04:50:01.335Z,97.00
2018-10-03T04:52:29.990Z,97.20
2018-10-03T04:54:58.655Z,97.20
2018-10-03T04:57:27.266Z,97.40
2018-10-03T04:59:55.873Z,97.40
2018-10-03T05:02:24.570Z,97.40
2018-10-03T05:04:53.292Z,97.40
2018-10-03T05:07:22.010Z,97.40
2018-10-03T05:09:50.650Z,97.30
2018-10-03T05:12:19.255Z,97.30
2018-10-03T05:14:47.974Z,97.20
2018-10-03T05:17:16.650Z,97.00
2018-10-03T05:19:45.338Z,97.00
2018-10-03T05:22:13.991Z,97.00
2018-10-03T05:24:42.672Z,96.90
2018-10-03T05:27:11.416Z,96.90
2018-10-03T05:29:40.032Z,96.90
2018-10-03T05:32:08.641Z,96.80
2018-10-03T05:34:37.267Z,97.20
2018-10-03T05:37:06.079Z,96.80
2018-10-03T05:39:34.798Z,96.70
2018-10-03T05:42:03.463Z,96.80
2018-10-03T05:44:32.115Z,96.80
2018-10-03T05:47:00.759Z,96.70
2018-10-03T05:49:29.401Z,96.70
2018-10-03T05:51:58.087Z,96.70
2018-10-03T05:54:26.843Z,96.60
2018-10-03T05:56:55.501Z,96.50
2018-10-03T05:59:24.095Z,96.40
2018-10-03T06:01:52.829Z,96.40
2018-10-03T06:04:21.457Z,96.40
2018-10-03T06:06:50.072Z,96.40
2018-10-03T06:09:18.728Z,96.50
2018-10-03T06:11:47.457Z,96.40
2018-10-03T06:14:16.091Z,96.40
2018-10-03T06:16:44.740Z,96.40
2018-10-03T06:19:13.410Z,96.20
2018-10-03T06:21:42.115Z,96.20
2018-10-03T06:24:10.784Z,96.30
2018-10-03T06:26:39.392Z,96.10
2018-10-03T06:29:08.020Z,96.10
2018-10-03T06:31:36.758Z,95.90
2018-10-03T06:34:05.328Z,95.80
2018-10-03T06:36:33.985Z,95.80
2018-10-03T06:39:02.701Z,95.80
2018-10-03T06:41:31.374Z,95.70
2018-10-03T06:43:59.976Z,95.80
2018-10-03T06:46:28.620Z,95.80
2018-10-03T06:48:57.292Z,95.80
2018-10-03T06:51:25.914Z,95.60
2018-10-03T06:53:54.587Z,95.40
2018-10-03T06:56:23.275Z,95.30
2018-10-03T06:58:51.873Z,94.50
2018-10-03T07:01:20.544Z,94.50
2018-10-03T07:03:49.153Z,94.30
2018-10-03T07:06:17.787Z,94.40
2018-10-03T07:08:46.496Z,93.90
2018-10-03T07:11:15.124Z,93.90
2018-10-03T07:13:43.710Z,93.90
2018-10-03T07:16:12.355Z,94.00
2018-10-03T07:18:40.973Z,94.00
2018-10-03T07:21:09.624Z,93.80
2018-10-03T07:23:38.326Z,93.90
2018-10-03T07:26:07.482Z,93.90
2018-10-03T07:28:36.227Z,93.60
2018-10-03T07:31:04.886Z,93.70
2018-10-03T07:33:33.585Z,93.20
2018-10-03T07:36:02.440Z,93.40
2018-10-03T07:38:31.061Z,93.30
2018-10-03T07:40:59.721Z,93.40
2018-10-03T07:43:28.376Z,93.20
2018-10-03T07:45:57.095Z,93.50
2018-10-03T07:48:25.900Z,93.50
2018-10-03T07:50:54.489Z,92.90
2018-10-03T07:53:23.164Z,93.20
2018-10-03T07:55:51.764Z,93.20
2018-10-03T07:58:20.393Z,93.30
2018-10-03T08:00:49.013Z,93.20
2018-10-03T08:03:17.684Z,93.20
2018-10-03T08:05:46.339Z,93.10
2018-10-03T08:08:15.053Z,92.80
2018-10-03T08:10:43.713Z,92.80
2018-10-03T08:13:12.429Z,92.40
2018-10-03T08:15:41.065Z,92.40
2018-10-03T08:18:09.814Z,91.60
2018-10-03T08:20:38.513Z,91.60
2018-10-03T08:23:07.167Z,91.40
2018-10-03T08:25:35.872Z,91.60
2018-10-03T08:28:04.549Z,91.60
2018-10-03T08:30:33.159Z,91.30
2018-10-03T08:33:02.013Z,91.40
2018-10-03T08:35:30.613Z,91.30
2018-10-03T08:37:59.304Z,91.00
2018-10-03T08:40:27.970Z,91.00
2018-10-03T08:42:56.875Z,90.90
2018-10-03T08:45:25.512Z,90.30
2018-10-03T08:47:54.126Z,89.40
2018-10-03T08:50:22.715Z,86.60
2018-10-03T08:52:51.373Z,86.30
2018-10-03T08:55:20.142Z,86.20
2018-10-03T08:57:48.838Z,84.60
2018-10-03T09:00:17.494Z,84.40
2018-10-03T09:02:46.204Z,83.70
2018-10-03T09:05:14.836Z,83.50
2018-10-03T09:07:43.479Z,82.70
2018-10-03T09:10:12.188Z,82.30
2018-10-03T09:12:40.869Z,82.40
2018-10-03T09:15:09.676Z,83.00
2018-10-03T09:17:38.379Z,82.70
2018-10-03T09:20:06.982Z,83.80
2018-10-03T09:22:35.647Z,82.60
2018-10-03T09:25:04.446Z,80.90
2018-10-03T09:27:33.129Z,81.80
2018-10-03T09:30:01.821Z,81.50
2018-10-03T09:32:30.478Z,83.00
2018-10-03T09:34:59.186Z,82.10
2018-10-03T09:37:27.869Z,81.10
2018-10-03T09:39:56.557Z,77.50
2018-10-03T09:42:25.254Z,79.10
2018-10-03T09:44:53.893Z,77.10
2018-10-03T09:47:23.190Z,78.10
2018-10-03T09:49:51.903Z,77.00
2018-10-03T09:52:20.532Z,74.50
2018-10-03T09:54:49.204Z,77.70
2018-10-03T09:57:17.877Z,74.70
2018-10-03T09:59:46.539Z,73.40
2018-10-03T10:02:15.297Z,73.80
2018-10-03T10:04:43.963Z,73.00
2018-10-03T10:07:12.647Z,74.80
2018-10-03T10:09:41.336Z,73.60
2018-10-03T10:12:09.971Z,71.10
2018-10-03T10:14:38.675Z,70.20
2018-10-03T10:17:07.380Z,71.30
2018-10-03T10:19:36.665Z,71.60
2018-10-03T10:22:05.352Z,69.30
2018-10-03T10:24:33.994Z,69.20
2018-10-03T10:27:02.717Z,71.20
2018-10-03T10:29:31.338Z,67.70
2018-10-03T10:31:59.977Z,68.50
2018-10-03T10:34:28.632Z,66.60
2018-10-03T10:36:57.293Z,67.90
2018-10-03T10:39:26.122Z,69.80
2018-10-03T10:41:54.837Z,68.40
2018-10-03T10:44:23.551Z,68.10
2018-10-03T10:46:52.360Z,66.90
2018-10-03T10:49:20.998Z,67.80
2018-10-03T10:51:50.593Z,66.40
2018-10-03T10:54:19.221Z,67.00
2018-10-03T10:56:47.816Z,68.10
2018-10-03T10:59:16.437Z,67.60
2018-10-03T11:01:45.091Z,64.60
2018-10-03T11:04:13.705Z,65.00
2018-10-03T11:06:42.446Z,63.80
2018-10-03T11:09:11.071Z,65.00
2018-10-03T11:11:39.693Z,62.00
2018-10-03T11:14:08.344Z,63.30
2018-10-03T11:16:37.028Z,65.00
2018-10-03T11:19:05.663Z,63.50
2018-10-03T11:21:34.284Z,63.00
2018-10-03T11:24:03.384Z,63.40
2018-10-03T11:26:31.987Z,64.50
2018-10-03T11:29:00.619Z,61.90
2018-10-03T11:31:29.256Z,61.40
2018-10-03T11:33:57.867Z,60.10
2018-10-03T11:36:26.501Z,59.10
2018-10-03T11:38:55.105Z,60.60
2018-10-03T11:41:23.713Z,61.00
2018-10-03T11:43:52.418Z,60.10
2018-10-03T11:46:21.047Z,62.90
2018-10-03T11:48:49.687Z,66.30
2018-10-03T11:51:18.292Z,63.70
2018-10-03T11:53:46.961Z,64.30
2018-10-03T11:56:15.611Z,67.50
2018-10-03T11:58:44.225Z,64.80
2018-10-03T12:01:12.856Z,67.00
2018-10-03T12:03:41.475Z,66.30
2018-10-03T12:06:10.134Z,66.20
2018-10-03T12:08:38.841Z,67.90
2018-10-03T12:11:07.461Z,65.00
2018-10-03T12:13:36.103Z,64.40
2018-10-03T12:16:05.901Z,66.10
2018-10-03T12:18:34.553Z,65.30
2018-10-03T12:21:03.224Z,68.80
2018-10-03T12:23:31.847Z,69.30
2018-10-03T12:26:00.445Z,66.10
2018-10-03T12:28:29.071Z,63.20
2018-10-03T12:30:57.656Z,59.30
2018-10-03T12:33:26.329Z,60.80
2018-10-03T12:35:54.864Z,61.40
2018-10-03T12:38:23.552Z,60.20
2018-10-03T12:40:52.156Z,60.20
2018-10-03T12:43:20.750Z,61.20
2018-10-03T12:45:49.888Z,59.20
2018-10-03T12:48:18.554Z,57.10
2018-10-03T12:50:47.185Z,56.80
2018-10-03T12:53:15.809Z,57.50
2018-10-03T12:55:44.454Z,56.90
2018-10-03T12:58:13.092Z,56.20
2018-10-03T13:00:41.734Z,56.90
2018-10-03T13:03:10.476Z,57.80
2018-10-03T13:05:39.150Z,57.30
2018-10-03T13:08:07.850Z,59.80
2018-10-03T13:10:36.506Z,57.90
2018-10-03T13:13:05.255Z,58.80
2018-10-03T13:15:33.924Z,56.80
2018-10-03T13:18:02.664Z,57.30
2018-10-03T13:20:37.946Z,57.10
2018-10-03T13:23:06.804Z,58.80
2018-10-03T13:25:35.477Z,58.10
2018-10-03T13:28:04.167Z,57.20
2018-10-03T13:30:32.883Z,55.70
2018-10-03T13:33:01.553Z,56.90
2018-10-03T13:35:30.224Z,56.40
2018-10-03T13:37:58.829Z,55.30
2018-10-03T13:40:27.510Z,56.10
2018-10-03T13:42:56.270Z,56.40
2018-10-03T13:45:24.993Z,57.10
2018-10-03T13:47:53.669Z,57.30
2018-10-03T13:50:22.448Z,57.70
2018-10-03T13:52:51.048Z,56.10
2018-10-03T13:55:19.681Z,57.20
2018-10-03T13:57:48.360Z,57.40
2018-10-03T14:00:16.985Z,56.20
2018-10-03T14:02:45.752Z,58.20
2018-10-03T14:05:14.404Z,57.60
2018-10-03T14:07:43.074Z,57.20
2018-10-03T14:10:11.758Z,57.00
2018-10-03T14:12:40.408Z,56.60
2018-10-03T14:15:09.495Z,56.10
2018-10-03T14:17:38.373Z,59.00
2018-10-03T14:20:07.064Z,57.80
2018-10-03T14:22:35.685Z,57.60
2018-10-03T14:25:04.317Z,55.70
2018-10-03T14:27:33.035Z,58.40
2018-10-03T14:30:01.747Z,59.60
2018-10-03T14:32:31.319Z,58.50
2018-10-03T14:35:00.245Z,57.10
2018-10-03T14:37:28.940Z,57.40
2018-10-03T14:39:57.635Z,56.70
2018-10-03T14:42:26.257Z,58.10
2018-10-03T14:44:54.995Z,57.70
2018-10-03T14:47:23.966Z,59.30
2018-10-03T14:49:52.711Z,57.60
2018-10-03T14:52:22.930Z,58.50
2018-10-03T14:54:51.675Z,58.50
2018-10-03T14:57:20.418Z,60.40
2018-10-03T14:59:49.072Z,59.70
2018-10-03T15:02:17.750Z,59.80
2018-10-03T15:04:46.531Z,60.40
2018-10-03T15:07:15.215Z,61.60
2018-10-03T15:09:43.927Z,62.60
2018-10-03T15:12:12.687Z,61.10
2018-10-03T15:14:41.345Z,62.40
2018-10-03T15:17:10.057Z,60.30
2018-10-03T15:19:38.809Z,63.10
2018-10-03T15:22:07.448Z,62.80
2018-10-03T15:24:36.112Z,63.00
2018-10-03T15:27:04.704Z,65.30
2018-10-03T15:29:33.409Z,65.00
2018-10-03T15:32:02.072Z,64.40
2018-10-03T15:34:30.699Z,64.90
2018-10-03T15:36:59.427Z,64.40
2018-10-03T15:39:28.093Z,66.50
2018-10-03T15:41:56.724Z,66.20
2018-10-03T15:44:25.337Z,67.00
2018-10-03T15:46:54.021Z,66.80
2018-10-03T15:49:23.830Z,69.90
2018-10-03T15:51:52.770Z,68.40
2018-10-03T15:54:21.372Z,70.50
2018-10-03T15:56:50.018Z,70.80
2018-10-03T15:59:18.673Z,72.10
2018-10-03T16:01:47.269Z,73.20
2018-10-03T16:04:15.943Z,70.20
2018-10-03T16:06:45.149Z,69.40
2018-10-03T16:09:13.792Z,68.70
2018-10-03T16:11:42.526Z,68.30
2018-10-03T16:14:11.728Z,68.10
2018-10-03T16:16:40.399Z,67.50
2018-10-03T16:19:09.016Z,71.50
2018-10-03T16:21:37.706Z,68.80
2018-10-03T16:24:06.406Z,68.60
2018-10-03T16:26:35.008Z,69.50
2018-10-03T16:29:03.719Z,69.00
2018-10-03T16:31:32.487Z,70.20
2018-10-03T16:34:01.113Z,71.30
2018-10-03T16:36:29.724Z,73.60
2018-10-03T16:38:58.504Z,75.50
2018-10-03T16:41:26.973Z,75.90
2018-10-03T16:43:55.544Z,78.40
2018-10-03T16:46:24.184Z,79.00
2018-10-03T16:48:52.780Z,77.50
2018-10-03T16:51:21.416Z,79.40
2018-10-03T16:53:50.042Z,76.70
2018-10-03T16:56:18.674Z,79.50
2018-10-03T16:58:47.384Z,78.40
2018-10-03T17:01:16.018Z,77.80
2018-10-03T17:03:44.643Z,79.20
2018-10-03T17:06:13.248Z,82.10
2018-10-03T17:08:41.861Z,82.70
2018-10-03T17:11:10.465Z,81.80
2018-10-03T17:13:50.248Z,84.50
2018-10-03T17:16:18.884Z,83.70
2018-10-03T17:18:47.561Z,85.10
2018-10-03T17:21:16.240Z,86.00
2018-10-03T17:23:44.997Z,87.00
2018-10-03T17:26:13.685Z,87.90
2018-10-03T17:28:42.293Z,86.10
2018-10-03T17:31:11.010Z,88.80
2018-10-03T17:33:39.679Z,85.50
2018-10-03T17:36:08.336Z,86.50
2018-10-03T17:38:36.995Z,84.80
2018-10-03T17:41:05.853Z,86.40
2018-10-03T17:43:34.466Z,88.30
2018-10-03T17:46:03.171Z,84.10
2018-10-03T17:48:31.811Z,87.00
2018-10-03T17:51:00.565Z,87.20
2018-10-03T17:53:29.156Z,86.10
2018-10-03T17:55:57.798Z,85.00
2018-10-03T17:58:26.483Z,83.30
2018-10-03T18:00:55.160Z,82.80
2018-10-03T18:03:23.801Z,82.20
2018-10-03T18:05:52.423Z,81.80
2018-10-03T18:08:21.058Z,80.40
2018-10-03T18:10:49.642Z,82.20
2018-10-03T18:13:18.287Z,83.50
2018-10-03T18:15:46.922Z,81.80
2018-10-03T18:18:15.673Z,86.70
2018-10-03T18:20:44.302Z,83.60
2018-10-03T18:23:13.009Z,86.90
2018-10-03T18:25:41.620Z,88.10
2018-10-03T18:28:10.213Z,87.00
2018-10-03T18:30:38.943Z,88.30
2018-10-03T18:33:08.062Z,89.80
2018-10-03T18:35:36.629Z,87.90
2018-10-03T18:38:05.448Z,90.50
2018-10-03T18:40:33.947Z,90.40
2018-10-03T18:43:02.816Z,90.70
2018-10-03T18:45:31.428Z,91.10
2018-10-03T18:48:00.066Z,91.00
2018-10-03T18:50:28.649Z,91.00
2018-10-03T18:52:57.291Z,91.30
2018-10-03T18:55:25.897Z,91.40
2018-10-03T18:57:54.573Z,92.00
2018-10-03T19:00:23.289Z,92.30
2018-10-03T19:02:51.879Z,92.50
2018-10-03T19:05:20.718Z,92.70
2018-10-03T19:07:49.373Z,92.60
2018-10-03T19:10:18.038Z,92.60
2018-10-03T19:12:46.651Z,92.70
2018-10-03T19:15:15.349Z,93.10
2018-10-03T19:17:43.998Z,93.10
2018-10-03T19:20:12.700Z,93.30
2018-10-03T19:22:41.312Z,93.50
2018-10-03T19:25:10.007Z,93.60
2018-10-03T19:27:38.896Z,93.80
2018-10-03T19:30:07.536Z,94.00
2018-10-03T19:32:36.148Z,94.20
2018-10-03T19:35:04.943Z,94.40
2018-10-03T19:37:33.549Z,94.20
2018-10-03T19:40:02.158Z,94.40
2018-10-03T19:42:30.810Z,94.40
2018-10-03T19:44:59.400Z,94.40
2018-10-03T19:47:28.020Z,94.60
2018-10-03T19:49:56.654Z,94.50
2018-10-03T19:52:25.245Z,94.60
2018-10-03T19:54:53.893Z,94.60
2018-10-03T19:57:22.460Z,94.60
2018-10-03T19:59:51.121Z,94.60
2018-10-03T20:02:19.719Z,94.90
2018-10-03T20:04:48.333Z,94.90
2018-10-03T20:07:16.995Z,95.00
2018-10-03T20:09:45.570Z,95.00
2018-10-03T20:12:14.168Z,95.20
2018-10-03T20:14:42.825Z,95.30
2018-10-03T20:17:11.421Z,95.20
2018-10-03T20:19:40.267Z,95.20
2018-10-03T20:22:10.687Z,95.40
2018-10-03T20:24:39.729Z,95.60
2018-10-03T20:27:08.457Z,95.50
2018-10-03T20:29:37.125Z,95.70
2018-10-03T20:32:05.783Z,95.90
2018-10-03T20:34:34.401Z,96.20
2018-10-03T20:37:03.145Z,96.30
2018-10-03T20:39:31.745Z,96.20
2018-10-03T20:42:00.348Z,96.00
2018-10-03T20:44:28.965Z,96.00
2018-10-03T20:46:57.621Z,96.10
2018-10-03T20:49:26.236Z,95.90
2018-10-03T20:51:54.873Z,95.50
2018-10-03T20:54:23.559Z,95.30
2018-10-03T20:56:52.109Z,95.40
2018-10-03T20:59:20.728Z,95.50
2018-10-03T21:01:49.392Z,95.80
2018-10-03T21:04:18.024Z,95.60
2018-10-03T21:06:46.641Z,95.10
2018-10-03T21:09:15.279Z,95.40
2018-10-03T21:11:43.897Z,95.60
2018-10-03T21:14:12.493Z,95.80
2018-10-03T21:16:41.100Z,95.90
2018-10-03T21:19:09.675Z,95.90
2018-10-03T21:21:38.391Z,95.70
2018-10-03T21:24:07.322Z,95.90
2018-10-03T21:26:36.013Z,95.80
2018-10-03T21:29:04.582Z,95.60
2018-10-03T21:31:33.209Z,95.70
2018-10-03T21:34:01.911Z,95.60
2018-10-03T21:36:30.528Z,95.60
2018-10-03T21:38:59.163Z,95.90
2018-10-03T21:41:27.805Z,96.00
2018-10-03T21:43:56.462Z,95.80
2018-10-03T21:46:25.117Z,96.00
2018-10-03T21:48:53.797Z,95.70
2018-10-03T21:51:22.463Z,95.30
2018-10-03T21:53:51.053Z,95.40
2018-10-03T21:56:19.788Z,95.50
2018-10-03T21:58:48.383Z,95.70
2018-10-03T22:01:17.052Z,95.70
2018-10-03T22:03:45.718Z,95.60
2018-10-03T22:06:14.369Z,95.40
2018-10-03T22:08:43.034Z,94.80
2018-10-03T22:11:11.640Z,94.80
2018-10-03T22:13:40.287Z,94.50
2018-10-03T22:16:09.411Z,94.20
2018-10-03T22:18:38.008Z,94.30
2018-10-03T22:21:06.728Z,94.10
2018-10-03T22:23:35.431Z,94.10
2018-10-03T22:26:04.042Z,94.20
2018-10-03T22:28:32.640Z,93.60
2018-10-03T22:31:01.262Z,93.70
2018-10-03T22:33:29.904Z,93.60
2018-10-03T22:35:58.524Z,93.60
2018-10-03T22:38:27.144Z,92.80
2018-10-03T22:40:55.826Z,92.70
2018-10-03T22:43:24.445Z,92.90
2018-10-03T22:45:53.144Z,93.00
2018-10-03T22:48:21.818Z,92.70
2018-10-03T22:50:50.474Z,92.60
2018-10-03T22:53:19.138Z,92.80
2018-10-03T22:55:47.771Z,92.80
2018-10-03T22:58:16.432Z,92.70
2018-10-03T23:00:45.069Z,92.90
2018-10-03T23:03:13.833Z,92.90
2018-10-03T23:05:42.468Z,92.90
2018-10-03T23:08:11.138Z,92.70
2018-10-03T23:10:39.877Z,92.90
2018-10-03T23:13:08.562Z,92.70
2018-10-03T23:15:37.145Z,92.60
2018-10-03T23:18:12.000Z,92.70
2018-10-03T23:20:40.647Z,92.60
2018-10-03T23:23:09.285Z,92.70
2018-10-03T23:25:37.977Z,92.80
2018-10-03T23:28:06.628Z,92.60
2018-10-03T23:30:35.244Z,92.90
2018-10-03T23:33:03.884Z,93.30
2018-10-03T23:35:32.543Z,93.40
2018-10-03T23:38:01.162Z,93.50
2018-10-03T23:40:29.809Z,93.60
2018-10-03T23:42:58.421Z,94.00
2018-10-03T23:45:27.094Z,94.00
2018-10-03T23:47:55.745Z,93.60
2018-10-03T23:50:24.380Z,93.60
2018-10-03T23:52:53.011Z,93.00
2018-10-03T23:55:21.642Z,93.40
2018-10-03T23:57:50.349Z,93.20
